createdAt,value
2022-08-04T00:00:12.641Z,12.25
2022-08-04T00:03:13.395Z,10.93
2022-08-04T00:06:11.440Z,11.60
2022-08-04T00:09:08.062Z,11.55
2022-08-04T00:12:01.394Z,10.90
2022-08-04T00:14:52.439Z,11.75
2022-08-04T00:17:51.390Z,12.10
2022-08-04T00:20:40.224Z,12.02
2022-08-04T00:24:11.070Z,11.70
2022-08-04T00:26:41.188Z,11.93
2022-08-04T00:29:24.859Z,11.07
2022-08-04T00:32:16.413Z,11.63
2022-08-04T00:35:22.657Z,12.02
2022-08-04T00:38:12.168Z,11.13
2022-08-04T00:41:14.444Z,11.80
2022-08-04T00:44:41.177Z,11.45
2022-08-04T00:47:38.415Z,12.77
2022-08-04T00:50:30.179Z,13.30
2022-08-04T00:53:34.165Z,12.25
2022-08-04T00:56:31.402Z,13.98
2022-08-04T00:59:49.144Z,14.07
2022-08-04T01:02:43.459Z,15.90
2022-08-04T01:06:09.398Z,17.15
2022-08-04T01:09:25.142Z,16.90
2022-08-04T01:12:51.353Z,16.58
2022-08-04T01:16:02.165Z,16.90
2022-08-04T01:19:22.016Z,19.20
2022-08-04T01:22:33.139Z,18.45
2022-08-04T01:25:21.341Z,19.90
2022-08-04T01:28:33.103Z,19.95
2022-08-04T01:31:41.166Z,19.08
2022-08-04T01:34:24.393Z,19.80
2022-08-04T01:37:55.293Z,20.52
2022-08-04T01:40:38.663Z,20.60
2022-08-04T01:43:29.140Z,20.58
2022-08-04T01:46:12.469Z,20.13
2022-08-04T01:49:03.160Z,20.50
2022-08-04T01:51:48.450Z,20.40
2022-08-04T01:54:40.406Z,20.75
2022-08-04T01:57:38.200Z,20.10
2022-08-04T02:00:35.224Z,20.58
2022-08-04T02:03:17.710Z,19.98
2022-08-04T02:06:18.425Z,19.40
2022-08-04T02:09:17.686Z,19.27
2022-08-04T02:12:17.160Z,20.20
2022-08-04T02:15:07.326Z,21.63
2022-08-04T02:18:12.143Z,22.42
2022-08-04T02:20:57.736Z,21.73
2022-08-04T02:23:49.152Z,22.70
2022-08-04T02:26:36.661Z,22.25
2022-08-04T02:29:38.393Z,22.75
2022-08-04T02:32:40.413Z,24.30
2022-08-04T02:35:35.172Z,23.67
2022-08-04T02:38:48.385Z,23.70
2022-08-04T02:41:38.154Z,26.77
2022-08-04T02:44:37.955Z,26.55
2022-08-04T02:48:28.718Z,28.27
2022-08-04T02:50:38.150Z,24.48
2022-08-04T02:53:24.040Z,24.48
2022-08-04T02:56:15.416Z,25.80
2022-08-04T02:59:11.478Z,24.45
2022-08-04T03:02:00.386Z,24.75
2022-08-04T03:05:11.659Z,24.15
2022-08-04T03:08:21.253Z,24.00
2022-08-04T03:11:19.595Z,23.73
2022-08-04T03:14:19.414Z,24.23
2022-08-04T03:17:25.640Z,23.90
2022-08-04T03:20:31.403Z,23.48
2022-08-04T03:23:38.211Z,24.83
2022-08-04T03:26:42.454Z,25.75
2022-08-04T03:30:04.136Z,25.60
2022-08-04T03:33:16.139Z,25.65
2022-08-04T03:36:31.669Z,25.65
2022-08-04T03:39:38.506Z,24.60
2022-08-04T03:42:44.570Z,25.65
2022-08-04T03:45:42.148Z,24.65
2022-08-04T03:49:10.712Z,22.77
2022-08-04T03:52:32.394Z,23.63
2022-08-04T03:55:39.436Z,23.30
2022-08-04T03:58:40.141Z,24.70
2022-08-04T04:02:01.203Z,23.20
2022-08-04T04:05:01.157Z,22.85
2022-08-04T04:08:20.128Z,24.50
2022-08-04T04:11:56.653Z,22.80
2022-08-04T04:15:04.287Z,20.92
2022-08-04T04:18:16.438Z,19.85
2022-08-04T04:21:36.402Z,19.70
2022-08-04T04:24:34.704Z,21.77
2022-08-04T04:27:32.369Z,24.17
2022-08-04T04:30:17.824Z,22.60
2022-08-04T04:33:25.405Z,24.55
2022-08-04T04:36:51.720Z,23.52
2022-08-04T04:39:40.453Z,22.70
2022-08-04T04:42:56.484Z,21.08
2022-08-04T04:46:21.115Z,20.00
2022-08-04T04:49:24.425Z,19.13
2022-08-04T04:52:21.129Z,22.77
2022-08-04T04:55:18.967Z,19.42
2022-08-04T04:58:11.170Z,22.77
2022-08-04T05:01:19.370Z,20.13
2022-08-04T05:04:17.694Z,16.17
2022-08-04T05:07:24.171Z,15.32
2022-08-04T05:10:09.703Z,15.65
2022-08-04T05:14:34.756Z,16.67
2022-08-04T05:16:28.650Z,19.20
2022-08-04T05:19:27.151Z,18.17
2022-08-04T05:22:14.614Z,19.50
2022-08-04T05:25:30.395Z,18.80
2022-08-04T05:28:22.110Z,16.33
2022-08-04T05:31:27.704Z,16.10
2022-08-04T05:34:41.116Z,14.52
2022-08-04T05:37:31.367Z,14.93
2022-08-04T05:40:24.107Z,14.68
2022-08-04T05:43:14.781Z,15.48
2022-08-04T05:46:10.116Z,16.45
2022-08-04T05:49:01.131Z,15.05
2022-08-04T05:51:51.128Z,14.30
2022-08-04T05:54:43.107Z,13.45
2022-08-04T05:57:26.648Z,14.35
2022-08-04T06:00:38.846Z,13.85
2022-08-04T06:03:19.412Z,15.52
2022-08-04T06:06:09.384Z,13.95
2022-08-04T06:08:52.561Z,14.55
2022-08-04T06:12:00.730Z,12.95
2022-08-04T06:14:53.845Z,12.73
2022-08-04T06:18:32.959Z,14.95
2022-08-04T06:20:57.772Z,14.63
2022-08-04T06:23:56.134Z,13.88
2022-08-04T06:26:44.677Z,14.20
2022-08-04T06:29:51.202Z,14.85
2022-08-04T06:32:48.118Z,16.83
2022-08-04T06:35:39.381Z,15.30
2022-08-04T06:38:29.129Z,14.55
2022-08-04T06:41:11.777Z,14.98
2022-08-04T06:44:00.405Z,13.80
2022-08-04T06:46:56.960Z,14.45
2022-08-04T06:51:24.723Z,15.45
2022-08-04T06:53:02.133Z,14.70
2022-08-04T06:55:45.503Z,13.98
2022-08-04T06:58:36.086Z,12.70
2022-08-04T07:01:29.196Z,14.50
2022-08-04T07:04:19.371Z,14.38
2022-08-04T07:07:01.877Z,14.13
2022-08-04T07:09:50.378Z,13.63
2022-08-04T07:12:40.127Z,14.68
2022-08-04T07:15:30.406Z,12.75
2022-08-04T07:18:13.110Z,13.45
2022-08-04T07:23:45.377Z,13.25
2022-08-04T07:26:30.364Z,12.05
2022-08-04T07:29:19.361Z,12.73
2022-08-04T07:32:02.977Z,11.65
2022-08-04T07:34:53.473Z,12.30
2022-08-04T07:37:45.408Z,11.85
2022-08-04T07:40:27.385Z,10.70
2022-08-04T07:43:24.368Z,12.95
2022-08-04T07:46:13.424Z,11.52
2022-08-04T07:49:03.413Z,11.75
2022-08-04T07:51:46.420Z,11.68
2022-08-04T07:54:35.139Z,12.40
2022-08-04T07:57:19.163Z,10.82
2022-08-04T08:00:16.177Z,11.68
2022-08-04T08:03:00.320Z,11.98
2022-08-04T08:06:17.272Z,11.13
2022-08-04T08:08:58.374Z,11.23
2022-08-04T08:12:35.114Z,11.20
2022-08-04T08:14:50.395Z,11.90
2022-08-04T08:17:59.130Z,12.50
2022-08-04T08:20:42.116Z,12.10
2022-08-04T08:23:31.498Z,11.35
2022-08-04T08:26:14.160Z,12.20
2022-08-04T08:31:57.160Z,11.68
2022-08-04T08:34:48.365Z,12.40
2022-08-04T08:37:45.783Z,11.48
2022-08-04T08:40:59.107Z,11.55
2022-08-04T08:44:29.765Z,11.83
2022-08-04T08:48:06.375Z,12.43
2022-08-04T08:51:32.216Z,11.32
2022-08-04T08:54:59.787Z,12.45
2022-08-04T08:58:00.091Z,12.15
2022-08-04T09:01:08.072Z,10.55
2022-08-04T09:04:23.591Z,12.18
2022-08-04T09:07:21.686Z,10.75
2022-08-04T09:10:22.529Z,11.50
2022-08-04T09:13:35.387Z,10.85
2022-08-04T09:16:32.356Z,11.38
2022-08-04T09:19:38.701Z,11.02
2022-08-04T09:22:52.916Z,11.15
2022-08-04T09:26:02.140Z,10.50
2022-08-04T09:29:23.116Z,11.15
2022-08-04T09:32:40.326Z,10.55
2022-08-04T09:35:38.141Z,11.02
2022-08-04T09:38:32.296Z,12.23
2022-08-04T09:41:52.703Z,10.60
2022-08-04T09:45:06.753Z,11.52
2022-08-04T09:48:01.121Z,12.23
2022-08-04T09:50:58.163Z,10.55
2022-08-04T09:53:52.550Z,12.68
2022-08-04T09:56:59.303Z,12.73
2022-08-04T09:59:55.398Z,11.15
2022-08-04T10:03:10.456Z,12.13
2022-08-04T10:06:32.792Z,11.10
2022-08-04T10:09:45.378Z,12.18
2022-08-04T10:12:57.109Z,12.82
2022-08-04T10:16:08.547Z,13.20
2022-08-04T10:19:12.384Z,12.20
2022-08-04T10:22:28.053Z,12.25
2022-08-04T10:26:06.935Z,11.43
2022-08-04T10:29:34.409Z,11.57
2022-08-04T10:32:39.933Z,11.18
2022-08-04T10:35:34.383Z,13.02
2022-08-04T10:38:41.882Z,13.30
2022-08-04T10:41:41.103Z,13.25
2022-08-04T10:44:42.214Z,12.90
2022-08-04T10:47:39.175Z,12.77
2022-08-04T10:50:30.267Z,13.23
2022-08-04T10:53:26.122Z,12.88
2022-08-04T10:56:18.801Z,13.35
2022-08-04T10:59:31.358Z,13.10
2022-08-04T11:02:35.408Z,13.60
2022-08-04T11:05:57.364Z,13.25
2022-08-04T11:09:02.371Z,14.87
2022-08-04T11:11:56.908Z,13.70
2022-08-04T11:15:02.130Z,13.77
2022-08-04T11:17:58.432Z,14.38
2022-08-04T11:20:50.587Z,13.70
2022-08-04T11:23:45.374Z,13.27
2022-08-04T11:26:32.631Z,13.45
2022-08-04T11:29:44.402Z,13.43
2022-08-04T11:32:46.376Z,12.90
2022-08-04T11:35:43.161Z,12.65
2022-08-04T11:38:37.681Z,12.85
2022-08-04T11:41:34.145Z,12.77
2022-08-04T11:44:26.390Z,13.27
2022-08-04T11:47:40.370Z,13.05
2022-08-04T11:50:53.624Z,14.02
2022-08-04T11:56:41.152Z,13.35
2022-08-04T11:59:23.656Z,13.25
2022-08-04T12:02:49.205Z,14.52
2022-08-04T12:05:38.771Z,13.43
2022-08-04T12:09:05.369Z,12.70
2022-08-04T12:11:58.584Z,13.25
2022-08-04T12:15:05.377Z,13.27
2022-08-04T12:18:42.319Z,12.25
2022-08-04T12:21:45.016Z,12.15
2022-08-04T12:24:45.408Z,13.40
2022-08-04T12:27:44.388Z,12.65
2022-08-04T12:30:58.559Z,11.95
2022-08-04T12:34:04.384Z,12.80
2022-08-04T12:37:06.843Z,11.57
2022-08-04T12:40:28.600Z,11.85
2022-08-04T12:43:13.663Z,11.88
2022-08-04T12:46:02.661Z,11.55
2022-08-04T12:48:55.251Z,11.95
2022-08-04T12:52:08.017Z,12.02
2022-08-04T12:55:04.367Z,12.05
2022-08-04T12:57:49.135Z,11.88
2022-08-04T13:00:43.998Z,11.18
2022-08-04T13:03:35.370Z,11.55
2022-08-04T13:06:23.319Z,11.50
2022-08-04T13:09:22.138Z,11.75
2022-08-04T13:12:13.067Z,11.73
2022-08-04T13:15:08.784Z,10.98
2022-08-04T13:18:04.404Z,12.60
2022-08-04T13:20:47.362Z,11.90
2022-08-04T13:24:10.912Z,12.18
2022-08-04T13:26:53.928Z,11.70
2022-08-04T13:29:58.949Z,11.93
2022-08-04T13:32:53.235Z,12.63
2022-08-04T13:35:54.418Z,12.00
2022-08-04T13:38:46.140Z,12.33
2022-08-04T13:41:31.425Z,11.68
2022-08-04T13:44:24.369Z,11.98
2022-08-04T13:47:21.456Z,12.70
2022-08-04T13:50:37.346Z,11.80
2022-08-04T13:53:33.352Z,12.38
2022-08-04T13:56:17.481Z,12.77
2022-08-04T13:59:13.512Z,13.07
2022-08-04T14:02:16.127Z,13.93
2022-08-04T14:05:05.301Z,13.10
2022-08-04T14:08:33.105Z,13.00
2022-08-04T14:12:07.041Z,13.45
2022-08-04T14:14:36.372Z,15.15
2022-08-04T14:18:22.362Z,12.93
2022-08-04T14:21:20.071Z,13.93
2022-08-04T14:24:11.330Z,14.07
2022-08-04T14:27:00.224Z,14.65
2022-08-04T14:29:46.685Z,14.50
2022-08-04T14:32:35.423Z,15.32
2022-08-04T14:35:20.742Z,15.23
2022-08-04T14:38:18.370Z,16.90
2022-08-04T14:41:07.567Z,17.50
2022-08-04T14:43:57.105Z,15.63
2022-08-04T14:46:39.246Z,15.80
2022-08-04T14:49:28.216Z,15.95
2022-08-04T14:52:10.317Z,16.95
2022-08-04T14:55:06.106Z,15.52
2022-08-04T14:58:35.263Z,17.13
2022-08-04T15:01:16.366Z,19.40
2022-08-04T15:04:08.460Z,16.80
2022-08-04T15:06:51.147Z,17.85
2022-08-04T15:09:34.786Z,18.23
2022-08-04T15:12:25.314Z,18.38
2022-08-04T15:15:35.858Z,18.48
2022-08-04T15:18:18.396Z,18.58
2022-08-04T15:21:03.395Z,18.88
2022-08-04T15:23:52.179Z,19.05
2022-08-04T15:26:53.076Z,20.10
2022-08-04T15:30:00.177Z,21.60
2022-08-04T15:33:00.120Z,21.30
2022-08-04T15:35:42.680Z,23.67
2022-08-04T15:38:37.142Z,22.85
2022-08-04T15:41:46.439Z,26.08
2022-08-04T15:45:02.351Z,25.98
2022-08-04T15:47:53.547Z,26.05
2022-08-04T15:50:35.764Z,27.50
2022-08-04T15:53:24.375Z,28.73
2022-08-04T15:56:48.413Z,30.10
2022-08-04T16:00:15.278Z,29.67
2022-08-04T16:05:47.363Z,30.92
2022-08-04T16:08:29.429Z,31.80
2022-08-04T16:11:38.348Z,31.23
2022-08-04T16:14:27.124Z,32.38
2022-08-04T16:17:19.556Z,33.45
2022-08-04T16:20:22.129Z,32.80
2022-08-04T16:24:02.232Z,34.00
2022-08-04T16:26:54.492Z,31.73
2022-08-04T16:30:17.349Z,32.47
2022-08-04T16:33:07.079Z,32.42
2022-08-04T16:36:07.839Z,33.05
2022-08-04T16:39:14.184Z,30.17
2022-08-04T16:42:03.162Z,32.15
2022-08-04T16:45:13.753Z,31.42
2022-08-04T16:48:02.429Z,32.33
2022-08-04T16:50:56.615Z,32.78
2022-08-04T16:54:04.984Z,32.53
2022-08-04T16:57:01.360Z,31.83
2022-08-04T17:00:00.145Z,32.92
2022-08-04T17:02:44.688Z,31.02
2022-08-04T17:05:39.169Z,32.13
2022-08-04T17:08:30.420Z,32.05
2022-08-04T17:11:20.111Z,31.60
2022-08-04T17:14:05.863Z,32.42
2022-08-04T17:16:55.393Z,33.58
2022-08-04T17:19:44.150Z,33.50
2022-08-04T17:22:33.345Z,32.72
2022-08-04T17:25:16.493Z,33.03
2022-08-04T17:28:24.869Z,33.55
2022-08-04T17:31:15.552Z,35.47
2022-08-04T17:40:26.725Z,35.03
2022-08-04T17:44:02.907Z,34.15
2022-08-04T17:46:29.057Z,35.58
2022-08-04T17:49:27.379Z,36.10
2022-08-04T17:52:39.639Z,36.65
2022-08-04T17:55:30.128Z,38.20
2022-08-04T17:58:30.418Z,36.78
2022-08-04T18:01:28.284Z,36.65
2022-08-04T18:04:28.676Z,36.75
2022-08-04T18:10:54.733Z,38.88
2022-08-04T18:13:42.855Z,37.22
2022-08-04T18:16:32.042Z,36.92
2022-08-04T18:19:31.296Z,37.58
2022-08-04T18:22:16.688Z,35.38
2022-08-04T18:25:18.150Z,38.10
2022-08-04T18:28:09.639Z,39.70
2022-08-04T18:31:03.362Z,38.10
2022-08-04T18:33:57.206Z,40.92
2022-08-04T18:36:55.471Z,36.78
2022-08-04T18:40:25.256Z,39.13
2022-08-04T18:42:48.563Z,36.67
2022-08-04T18:45:37.406Z,36.15
2022-08-04T18:48:20.804Z,38.13
2022-08-04T18:51:23.039Z,38.45
2022-08-04T18:54:13.093Z,37.83
2022-08-04T18:57:25.063Z,37.03
2022-08-04T19:00:05.679Z,37.97
2022-08-04T19:02:54.137Z,37.35
2022-08-04T19:05:38.251Z,38.95
2022-08-04T19:08:34.967Z,36.47
2022-08-04T19:11:37.921Z,35.55
2022-08-04T19:14:32.097Z,38.13
2022-08-04T19:17:15.415Z,36.55
2022-08-04T19:20:25.963Z,38.60
2022-08-04T19:24:11.359Z,38.92
2022-08-04T19:26:28.238Z,38.60
2022-08-04T19:29:11.368Z,40.00
2022-08-04T19:31:53.475Z,40.55
2022-08-04T19:34:45.981Z,41.30
2022-08-04T19:37:57.435Z,38.92
2022-08-04T19:40:38.461Z,40.80
2022-08-04T19:43:28.396Z,39.05
2022-08-04T19:46:13.523Z,39.85
2022-08-04T19:49:06.394Z,39.72
2022-08-04T19:52:15.336Z,36.33
2022-08-04T19:55:16.406Z,37.22
2022-08-04T19:58:15.115Z,36.78
2022-08-04T20:00:57.547Z,34.75
2022-08-04T20:04:10.558Z,36.70
2022-08-04T20:06:48.188Z,35.80
2022-08-04T20:09:37.514Z,35.47
2022-08-04T20:12:19.308Z,37.25
2022-08-04T20:15:08.124Z,35.45
2022-08-04T20:18:34.906Z,36.22
2022-08-04T20:21:03.299Z,37.00
2022-08-04T20:23:53.127Z,34.65
2022-08-04T20:26:42.084Z,36.70
2022-08-04T20:29:40.189Z,37.00
2022-08-04T20:32:32.354Z,38.85
2022-08-04T20:35:16.724Z,35.45
2022-08-04T20:38:06.102Z,34.88
2022-08-04T20:41:09.336Z,35.28
2022-08-04T20:43:58.115Z,33.70
2022-08-04T20:46:40.260Z,33.58
2022-08-04T20:49:35.154Z,35.78
2022-08-04T20:52:20.723Z,34.60
2022-08-04T20:55:10.382Z,34.75
2022-08-04T20:58:05.151Z,34.25
2022-08-04T21:01:00.510Z,34.38
2022-08-04T21:04:06.669Z,32.83
2022-08-04T21:06:50.179Z,34.83
2022-08-04T21:09:42.434Z,36.03
2022-08-04T21:12:27.443Z,35.47
2022-08-04T21:15:24.786Z,35.55
2022-08-04T21:18:08.255Z,37.85
2022-08-04T21:21:01.384Z,35.83
2022-08-04T21:23:44.365Z,36.25
2022-08-04T21:26:33.087Z,36.95
2022-08-04T21:29:15.377Z,36.60
2022-08-04T21:32:07.700Z,36.25
2022-08-04T21:34:54.236Z,36.72
2022-08-04T21:37:57.897Z,37.88
2022-08-04T21:40:43.619Z,37.60
2022-08-04T21:43:43.045Z,37.35
2022-08-04T21:46:32.066Z,35.03
2022-08-04T21:49:14.516Z,36.58
2022-08-04T21:55:06.605Z,34.75
2022-08-04T21:57:56.102Z,35.38
2022-08-04T22:00:53.371Z,35.53
2022-08-04T22:03:53.461Z,35.65
2022-08-04T22:06:47.631Z,34.17
2022-08-04T22:09:41.711Z,35.55
2022-08-04T22:12:42.278Z,35.70
2022-08-04T22:18:36.872Z,34.13
2022-08-04T22:21:26.078Z,34.72
2022-08-04T22:24:13.867Z,34.70
2022-08-04T22:27:03.042Z,35.40
2022-08-04T22:29:52.246Z,36.35
2022-08-04T22:32:41.099Z,35.38
2022-08-04T22:35:44.320Z,34.83
2022-08-04T22:38:48.695Z,35.53
2022-08-04T22:42:02.848Z,37.75
2022-08-04T22:44:42.379Z,36.33
2022-08-04T22:47:31.069Z,37.50
2022-08-04T22:50:27.713Z,36.53
2022-08-04T22:53:10.302Z,36.38
2022-08-04T22:56:09.587Z,35.75
2022-08-04T22:59:00.095Z,35.97
2022-08-04T23:01:59.602Z,35.33
2022-08-04T23:04:54.089Z,33.47
2022-08-04T23:07:47.207Z,36.80
2022-08-04T23:10:38.357Z,33.90
2022-08-04T23:13:29.375Z,33.70
2022-08-04T23:16:15.313Z,35.63
2022-08-04T23:18:59.047Z,33.70
2022-08-04T23:22:01.683Z,35.95
2022-08-04T23:24:44.451Z,34.70
2022-08-04T23:27:39.026Z,32.95
2022-08-04T23:30:33.328Z,33.22
2022-08-04T23:33:15.587Z,34.30
2022-08-04T23:36:04.143Z,34.78
2022-08-04T23:38:46.377Z,33.20
2022-08-04T23:41:54.113Z,33.33
2022-08-04T23:44:44.317Z,33.78
2022-08-04T23:48:14.559Z,34.03
2022-08-04T23:50:37.118Z,33.53
2022-08-04T23:53:28.303Z,31.92
2022-08-04T23:56:25.302Z,32.20
2022-08-04T23:59:52.113Z,33.53
